Airfield :
LOGIN :

Register | Disclaimer

   EN    FR    IT 

 










Legend :    VFR   Marginal VFR   IFR   Intensive IFR   Very Intensive IFR
Visi :
Ceiling :
>= 8 km
>= 3000ft
5 to 8 km
1000 to 3000 ft
1500m to 5 km
500 to 1000 ft
800 to 1500m
200 to 500 ft
< 800m
< 200 ft
Symbols :   Thunderstorms  Fog  Heavy snow  Heavy precipitations  Wind > 20 kt
SIGMETs :     Misc.  Thunderstorms  Icing  Turbulence  Mountain Waves  Volcanic Ashes






- Airport Elevation : 13 ft
- IATA code : SNR


LFRZ - St-Nazaire

CURRENT METAR :
  • 260000Z AUTO 30003KT 270V340 8000 NSC 18/17 Q1012 NOSIG

EXPIRED METARs :
  • 252330Z AUTO 31003KT 260V350 CAVOK 18/17 Q1012 NOSIG
  • 252300Z AUTO 33003KT 310V010 CAVOK 18/17 Q1012 TEMPO 3000 BR BKN020TCU
  • 252230Z AUTO 35003KT CAVOK 18/17 Q1012 TEMPO 3000 BR BKN020TCU BECMG 27012KT
  • 252200Z AUTO 30003KT 270V340 9999 FEW012 SCT250 19/17 Q1012 TEMPO 4000 SHRA BKN020TCU
  • 252130Z AUTO 29003KT 260V320 9999 BKN011 BKN058 19/17 Q1012 TEMPO 4000 SHRA BKN020TCU

TAF TAF LFRZ
Valid from the 26 at 00:00 until the 27 at 00:00 UTC


252300Z 2600/2624 35004KT CAVOK
TEMPO 2604/2607 1600 BR BKN002
BECMG 2610/2612 23012KT



MET'MAP, your aeronautical weather chart ! - Copyright ORBIFLY December 2007 - Disclaimer

ORBIFLY MET'MAP TEAM :

Programming & Development : Alexandra Zaïnal
Concept & original design : Baudouin d'Aumeries
Assistance for programming : Marc-Olivier Méhu
Technical & hardware support : Manuel Goepfert

Contact : metmap@orbifly.com




SOURCES & CREDITS :

   NOAA